Tiff City, MO (64868)

8:09 PM CDT on April 25, 2017 (GMT -0500)
Grove Municipal | | Change Station
Active Advisory: Severe Thunderstorm Watch

Elev 830 ft 36.60 °N, 94.74 °W | Updated 14 minutes ago

Mostly Cloudy
Mostly Cloudy
73 °F
Feels Like 73 °F
N
7
Wind Variable Wind from SSE

Today
High -- | Low -- °F
--% Chance of Precip.
Yesterday
High -- | Low -- °F
Precip. -- in
Pressure 29.45 in
Visibility 10.0 miles
Clouds Scattered Clouds 5000 ft
Dew Point 63 °F
Humidity 69%
Rainfall 0.00 in
Snow Depth Not available.
6:31 AM 8:01 PM
Waning Crescent, 0% visible
METAR KGMJ 260055Z AUTO 16006KT 10SM SCT050 23/17 A2945 RMK AO2 LTG DSNT W AND NW
Pressure 29.45 in
Visibility 10.0 miles
Clouds Scattered Clouds 5000 ft
Dew Point 63 °F
Humidity 69%
Rainfall 0.00 in
Snow Depth Not available.
6:31 AM 8:01 PM
Waning Crescent, 0% visible
METAR KGMJ 260055Z AUTO 16006KT 10SM SCT050 23/17 A2945 RMK AO2 LTG DSNT W AND NW

Get Your Daily Forecast Email!

Thanks for signing up!

Be on the lookout for a verification email in your inbox.

You'll start receiving severe weather alerts in your inbox..

×

10-Day Weather Forecast

Almanac

Astronomy

Apr. 25, 2017 Rise Set
Actual Time
Civil Twilight
Nautical Twilight
Astronomical Twilight
Moon
Length of Visible Light
Length of Day
Tomorrow will be .
, % of the Moon is Illuminated

Today's Extremes

State Highs State Lows

Community

WunderPhotos

WunderBlog® & News

Nearby

Air Quality

  Air Quality AQ Index Pollutant
Not available.

Snow Depth

Station Depth Elevation

Earthquake Activity

City Distance Mag. Time & Date
Minimum magnitude displayed is 2.5.

Coastal Water Temperatures

Place Temperature

Stations

Nearby Weather Stations

Station Location Temp. Windchill Dew Point Humidity Wind Precip. Elev Updated Type
                   

Watches & Warnings

Severe Thunderstorm Watch
Issued: 8:03 PM CDT Apr. 25, 2017 – National Weather Service

Severe Thunderstorm Watch 159 remains in effect until 200 am CDT

MO
. Missouri counties included are

Barton Bates Cass
Jasper McDonald Newton
Vernon